Time;durP1;ratioP1;P1;durP2;ratioP2;P2;SDS_P1;SDS_P2;PMS_P1;PMS_P2;Temp;Humidity;BMP_temperature;BMP_pressure;BME280_temperature;BME280_humidity;BME280_pressure;Samples;Min_cycle;Max_cycle;Signal;HPM_P1;HPM_P2
2021/08/01 00:02:08;;;;;;;4.33;2.60;;;;;;;15.40;87.78;99961.88;5095019;28;20259;-70
2021/08/01 00:04:33;;;;;;;6.40;1.90;;;;;;;15.39;88.26;99970.09;5095222;28;20181;-70
2021/08/01 00:06:59;;;;;;;5.83;2.30;;;;;;;15.35;88.48;99968.66;5096395;28;20198;-70
2021/08/01 00:09:24;;;;;;;2.17;1.73;;;;;;;15.34;88.43;99962.41;5096155;28;20167;-71
2021/08/01 00:11:49;;;;;;;4.70;2.30;;;;;;;15.31;88.57;99973.44;5096013;28;20190;-71
2021/08/01 00:14:15;;;;;;;6.30;2.37;;;;;;;15.22;89.34;99971.53;5096034;28;20569;-70
2021/08/01 00:16:40;;;;;;;3.90;2.03;;;;;;;15.24;89.16;99972.28;5096062;28;20175;-71
2021/08/01 00:19:05;;;;;;;5.80;2.43;;;;;;;15.22;89.64;99974.22;5077646;28;20182;-71
2021/08/01 00:21:31;;;;;;;2.77;2.37;;;;;;;15.25;89.46;99987.41;5077345;28;20213;-70
2021/08/01 00:23:56;;;;;;;4.90;2.40;;;;;;;15.25;89.70;99995.47;5094365;28;20198;-70
2021/08/01 00:26:22;;;;;;;3.87;2.37;;;;;;;15.19;89.68;99996.81;5095011;28;20182;-71
2021/08/01 00:28:47;;;;;;;3.13;2.00;;;;;;;15.26;89.44;100000.72;5096092;28;20174;-70
2021/08/01 00:31:12;;;;;;;4.47;2.07;;;;;;;15.26;89.85;100008.78;5095834;28;20193;-72
2021/08/01 00:33:37;;;;;;;5.37;2.30;;;;;;;15.21;90.24;99999.38;5095741;28;20189;-71
2021/08/01 00:36:03;;;;;;;16.70;2.50;;;;;;;15.25;89.80;99996.34;5095911;28;20171;-71
2021/08/01 00:38:28;;;;;;;3.53;2.17;;;;;;;15.19;90.53;99993.28;5094609;28;20170;-71
2021/08/01 00:40:53;;;;;;;4.90;2.57;;;;;;;15.16;90.92;99999.78;5095688;28;20193;-71
2021/08/01 00:43:19;;;;;;;4.13;2.17;;;;;;;15.17;90.76;99985.34;5096140;28;20193;-71
2021/08/01 00:45:44;;;;;;;5.87;2.20;;;;;;;15.15;91.18;99981.94;5094804;28;20186;-71
2021/08/01 00:48:12;;;;;;;4.40;2.57;;;;;;;15.13;91.37;99986.59;5094346;28;20614;-70
2021/08/01 00:50:37;;;;;;;3.97;2.47;;;;;;;15.14;91.03;99980.25;5093394;28;20236;-69
2021/08/01 00:53:03;;;;;;;6.23;3.50;;;;;;;15.11;91.54;99977.81;5095307;28;20159;-71
2021/08/01 00:55:28;;;;;;;4.40;2.70;;;;;;;15.09;91.64;99978.94;5093898;28;20661;-71
2021/08/01 00:57:53;;;;;;;4.50;2.57;;;;;;;15.08;91.48;99971.84;5094240;28;20170;-71
2021/08/01 01:03:09;;;;;;;5.10;2.40;;;;;;;15.05;91.57;99986.41;5095493;28;20184;-70
2021/08/01 01:05:42;;;;;;;5.10;2.40;;;;;;;15.06;91.41;99979.19;5077452;28;20195;-70
2021/08/01 01:08:15;;;;;;;3.53;2.27;;;;;;;15.07;91.43;99978.22;5094038;28;20165;-70
2021/08/01 01:10:43;;;;;;;2.67;2.30;;;;;;;15.01;92.11;99979.59;5094167;28;20197;-71
2021/08/01 01:13:12;;;;;;;6.40;3.07;;;;;;;14.98;91.96;99995.97;5094019;28;20166;-70
2021/08/01 01:15:45;;;;;;;2.90;2.50;;;;;;;15.02;92.20;99992.06;5093886;28;20170;-70
2021/08/01 01:18:14;;;;;;;5.53;2.63;;;;;;;15.00;91.91;99994.00;5094115;28;20173;-70
2021/08/01 01:20:58;;;;;;;6.60;3.03;;;;;;;14.96;92.48;99984.50;5093602;28;20198;-70
2021/08/01 01:23:36;;;;;;;4.87;2.73;;;;;;;14.95;92.25;99985.50;5094619;28;20174;-70
2021/08/01 01:26:09;;;;;;;6.23;2.80;;;;;;;14.93;92.30;99982.94;5077392;28;20173;-70
2021/08/01 01:28:56;;;;;;;7.27;4.03;;;;;;;14.89;92.81;99989.56;5093332;28;20161;-71
2021/08/01 01:31:37;;;;;;;5.23;2.83;;;;;;;14.87;93.51;99986.16;5094056;28;20193;-71
2021/08/01 01:34:38;;;;;;;7.23;4.00;;;;;;;14.77;93.77;99981.66;5093494;28;20158;-70
2021/08/01 01:37:08;;;;;;;5.03;2.53;;;;;;;14.83;93.74;99983.81;5087084;28;20188;-69
2021/08/01 01:39:38;;;;;;;4.57;2.37;;;;;;;14.84;93.82;99982.84;5093113;28;20543;-71
2021/08/01 01:42:05;;;;;;;6.93;3.10;;;;;;;14.87;93.68;99991.50;5093154;28;20226;-70
2021/08/01 01:44:32;;;;;;;3.63;2.70;;;;;;;14.88;93.84;100013.88;5076430;28;20193;-70
2021/08/01 01:46:57;;;;;;;5.73;2.70;;;;;;;14.88;93.55;100009.34;5093065;28;20255;-70
2021/08/01 01:49:23;;;;;;;6.37;2.77;;;;;;;14.94;93.72;100005.28;5093058;28;20280;-70
2021/08/01 01:51:49;;;;;;;2.97;2.23;;;;;;;14.92;93.98;100007.25;5092937;28;20281;-70
2021/08/01 01:54:14;;;;;;;4.23;2.53;;;;;;;15.05;93.02;100007.06;5093050;28;20731;-71
2021/08/01 01:56:41;;;;;;;3.63;2.50;;;;;;;15.13;93.01;100008.09;5092989;28;20197;-71
2021/08/01 01:59:06;;;;;;;6.77;2.50;;;;;;;15.09;92.73;100003.13;5092844;28;20178;-71
2021/08/01 02:01:32;;;;;;;4.00;2.40;;;;;;;15.13;93.25;100016.16;5093777;28;20194;-71
2021/08/01 02:03:57;;;;;;;2.73;2.17;;;;;;;15.20;93.13;100014.66;5092443;28;20198;-70
2021/08/01 02:06:23;;;;;;;3.40;2.37;;;;;;;15.24;92.93;100012.59;5093713;28;20269;-71
2021/08/01 02:08:57;;;;;;;5.40;2.40;;;;;;;15.26;93.14;100011.47;5075667;28;20174;-71
2021/08/01 02:11:24;;;;;;;4.10;2.43;;;;;;;15.21;93.45;100002.94;5093782;28;20193;-71
2021/08/01 02:14:01;;;;;;;5.13;2.30;;;;;;;15.24;93.20;100012.59;5092467;28;20174;-71
2021/08/01 02:16:29;;;;;;;4.37;2.80;;;;;;;15.32;92.86;100008.25;5092437;28;20629;-71
2021/08/01 02:18:56;;;;;;;9.00;2.60;;;;;;;15.33;92.24;99996.53;5093647;28;20665;-71
2021/08/01 02:21:22;;;;;;;6.60;2.90;;;;;;;15.32;92.57;100000.19;5075201;28;20233;-71
2021/08/01 02:23:47;;;;;;;3.90;2.53;;;;;;;15.31;92.60;99993.13;5092793;28;20611;-70
2021/08/01 02:26:14;;;;;;;5.57;2.93;;;;;;;15.35;92.50;99992.84;5075558;28;20182;-71
2021/08/01 02:28:40;;;;;;;4.30;2.70;;;;;;;15.29;92.48;99995.09;5075287;28;20190;-70
2021/08/01 02:31:06;;;;;;;5.47;2.13;;;;;;;15.23;92.83;99994.72;5092412;28;20666;-71
2021/08/01 02:33:32;;;;;;;2.60;2.40;;;;;;;15.18;92.53;99989.75;5092226;28;20174;-71
2021/08/01 02:36:00;;;;;;;10.40;2.53;;;;;;;15.12;92.92;99989.44;5094158;28;20201;-71
2021/08/01 02:38:26;;;;;;;4.43;2.57;;;;;;;15.11;92.57;99993.09;5092598;28;20268;-70
2021/08/01 02:40:52;;;;;;;2.57;2.27;;;;;;;15.04;93.41;99970.41;5092121;28;20682;-71
2021/08/01 02:43:18;;;;;;;4.47;2.57;;;;;;;15.09;93.55;99981.63;5091865;28;20186;-71
2021/08/01 02:45:44;;;;;;;3.77;2.20;;;;;;;15.10;93.16;99994.06;5091933;28;20182;-71
2021/08/01 02:48:11;;;;;;;2.30;2.10;;;;;;;15.00;93.48;99983.25;5092078;28;20257;-69
2021/08/01 02:50:38;;;;;;;3.10;2.20;;;;;;;15.05;93.39;99983.72;5074853;28;20276;-70
2021/08/01 02:53:08;;;;;;;3.67;2.37;;;;;;;15.09;93.39;99987.84;5091752;28;20175;-70
2021/08/01 02:55:33;;;;;;;5.47;2.70;;;;;;;15.07;93.53;99987.13;5091747;28;20767;-70
2021/08/01 02:58:00;;;;;;;3.73;2.30;;;;;;;15.08;93.47;99991.53;5091718;28;20206;-70
2021/08/01 03:00:26;;;;;;;4.43;2.47;;;;;;;15.16;93.31;99989.03;5091857;28;20546;-70
2021/08/01 03:02:52;;;;;;;3.67;2.70;;;;;;;15.23;93.24;99978.59;5093380;28;20225;-70
2021/08/01 03:05:18;;;;;;;3.50;2.37;;;;;;;15.10;93.78;99978.81;5092130;28;20236;-70
2021/08/01 03:07:44;;;;;;;4.20;2.40;;;;;;;15.08;93.65;99980.78;5091792;28;20177;-70
2021/08/01 03:10:10;;;;;;;4.53;2.80;;;;;;;15.18;93.24;99992.44;5091716;28;20307;-71
2021/08/01 03:12:43;;;;;;;4.97;2.40;;;;;;;15.16;93.44;99988.19;5091683;28;20204;-70
2021/08/01 03:15:09;;;;;;;5.47;2.60;;;;;;;15.13;93.18;99991.13;5095875;28;20181;-70
2021/08/01 03:17:34;;;;;;;3.13;2.40;;;;;;;15.19;92.88;99987.91;5097392;28;20178;-69
2021/08/01 03:19:59;;;;;;;5.10;2.43;;;;;;;15.16;92.50;99989.03;5097338;28;20479;-70
2021/08/01 03:22:24;;;;;;;4.43;2.80;;;;;;;15.11;93.00;99983.19;5096752;28;20201;-70
2021/08/01 03:24:50;;;;;;;3.03;2.40;;;;;;;14.98;93.60;99977.16;5096801;28;20189;-70
2021/08/01 03:27:15;;;;;;;2.57;2.37;;;;;;;14.91;94.86;99984.06;5095573;28;20578;-71
2021/08/01 03:29:40;;;;;;;4.37;2.70;;;;;;;14.84;95.01;99988.22;5096766;28;20174;-69
2021/08/01 03:32:06;;;;;;;4.37;2.80;;;;;;;14.76;95.55;99993.38;5096703;28;20198;-70
2021/08/01 03:34:31;;;;;;;4.17;2.70;;;;;;;14.74;96.27;99998.03;5095399;28;20299;-70
2021/08/01 03:36:57;;;;;;;6.53;2.60;;;;;;;14.69;96.40;100007.31;5095714;28;20227;-69
2021/08/01 03:39:22;;;;;;;3.87;2.57;;;;;;;14.50;97.51;100007.16;5096506;28;20182;-70
2021/08/01 03:41:48;;;;;;;7.90;2.80;;;;;;;14.53;97.47;100011.41;5095179;28;20194;-70
2021/08/01 03:44:13;;;;;;;3.50;2.60;;;;;;;14.74;97.06;100020.38;5096923;28;20646;-70
2021/08/01 03:46:38;;;;;;;3.83;2.57;;;;;;;14.67;97.27;100019.16;5096617;28;20170;-70
2021/08/01 03:49:04;;;;;;;3.83;2.70;;;;;;;14.66;97.45;100034.44;5095119;28;20192;-69
2021/08/01 03:51:29;;;;;;;3.63;2.63;;;;;;;14.76;97.45;100030.97;5095158;28;20189;-72
2021/08/01 03:53:55;;;;;;;3.53;2.60;;;;;;;14.71;97.87;100031.38;5096989;28;20185;-71
2021/08/01 03:56:20;;;;;;;5.27;2.67;;;;;;;14.70;98.15;100025.13;5095034;28;20581;-70
2021/08/01 03:58:45;;;;;;;7.33;2.50;;;;;;;14.87;97.68;100033.66;5094948;28;20170;-70
2021/08/01 04:01:14;;;;;;;4.50;2.60;;;;;;;14.97;97.67;100042.63;5095990;28;20232;-70
2021/08/01 04:03:39;;;;;;;6.63;3.20;;;;;;;15.07;96.95;100032.81;5094722;28;20259;-70
2021/08/01 04:06:05;;;;;;;5.67;2.60;;;;;;;15.01;97.13;100041.41;5077859;28;20190;-70
2021/08/01 04:08:31;;;;;;;5.17;2.67;;;;;;;15.05;96.75;100032.09;5096398;28;20256;-70
2021/08/01 04:10:56;;;;;;;4.30;2.53;;;;;;;15.13;95.99;100034.13;5095376;28;20221;-70
2021/08/01 04:13:21;;;;;;;5.03;2.70;;;;;;;15.20;95.19;100043.38;5095193;28;20197;-70
2021/08/01 04:15:47;;;;;;;3.03;2.50;;;;;;;15.17;95.47;100044.50;5106606;28;20174;-70
2021/08/01 04:18:12;;;;;;;4.27;2.40;;;;;;;15.33;93.80;100049.44;5098574;28;20174;-70
2021/08/01 04:20:38;;;;;;;3.63;2.37;;;;;;;15.38;93.17;100057.97;5117373;22;20221;-71
2021/08/01 04:23:03;;;;;;;5.57;2.90;;;;;;;15.37;92.82;100058.09;5077714;28;20214;-71
2021/08/01 04:25:28;;;;;;;2.93;2.30;;;;;;;15.48;92.42;100053.50;5076305;28;20171;-71
2021/08/01 04:27:53;;;;;;;3.47;2.40;;;;;;;15.45;92.20;100055.59;5095461;28;20243;-71
2021/08/01 04:30:19;;;;;;;4.47;2.70;;;;;;;15.42;91.85;100056.72;5077523;28;20543;-69
2021/08/01 04:32:44;;;;;;;7.33;2.43;;;;;;;15.54;91.60;100062.88;5095635;28;20237;-70
2021/08/01 04:35:10;;;;;;;5.47;2.57;;;;;;;15.63;90.43;100063.00;5077129;28;20186;-70
2021/08/01 04:37:35;;;;;;;4.07;2.63;;;;;;;15.62;90.94;100058.59;5077258;28;20174;-70
2021/08/01 04:40:00;;;;;;;6.97;2.40;;;;;;;15.60;90.96;100062.38;5077203;28;20178;-71
2021/08/01 04:42:26;;;;;;;3.10;2.80;;;;;;;15.68;90.07;100059.91;5060301;28;20573;-70
2021/08/01 04:44:51;;;;;;;3.80;2.37;;;;;;;15.60;91.00;100065.06;5077353;28;20178;-70
2021/08/01 04:47:16;;;;;;;2.97;2.20;;;;;;;15.76;89.74;100059.22;5095216;28;20185;-71
2021/08/01 04:49:42;;;;;;;4.37;2.17;;;;;;;15.89;89.03;100057.16;5076984;28;20178;-71
2021/08/01 04:52:11;;;;;;;7.60;2.53;;;;;;;15.82;89.61;100061.38;5077106;28;20273;-70
2021/08/01 04:54:36;;;;;;;3.67;2.23;;;;;;;15.99;88.28;100047.34;5077062;28;20174;-71
2021/08/01 04:57:03;;;;;;;5.23;2.47;;;;;;;16.11;87.93;100051.63;5076960;28;20170;-71
2021/08/01 04:59:28;;;;;;;2.83;2.43;;;;;;;16.25;86.96;100042.31;5078074;28;20227;-72
2021/08/01 05:01:53;;;;;;;4.80;2.27;;;;;;;16.25;86.96;100037.78;5094866;28;20202;-71
2021/08/01 05:04:19;;;;;;;4.17;2.43;;;;;;;16.25;87.15;100031.53;5076887;28;20170;-72
2021/08/01 05:06:45;;;;;;;3.13;2.50;;;;;;;16.18;87.39;100027.69;5076806;28;20201;-72
2021/08/01 05:09:10;;;;;;;3.57;2.20;;;;;;;16.30;87.00;100037.38;5077326;28;20176;-72
2021/08/01 05:11:35;;;;;;;4.80;2.20;;;;;;;16.23;86.92;100030.84;5076648;28;20247;-72
2021/08/01 05:14:00;;;;;;;4.20;2.30;;;;;;;16.10;87.62;100031.06;5076637;28;20174;-72
2021/08/01 05:16:26;;;;;;;3.80;2.47;;;;;;;16.03;88.98;100031.75;5094737;28;20171;-72
2021/08/01 05:18:51;;;;;;;5.83;2.53;;;;;;;16.18;87.93;100030.41;5076895;28;20182;-72
2021/08/01 05:21:20;;;;;;;4.60;2.60;;;;;;;16.26;87.52;100041.31;5085187;28;20224;-73
2021/08/01 05:23:46;;;;;;;5.13;2.90;;;;;;;16.41;87.18;100039.13;5087700;28;20186;-70
2021/08/01 05:26:11;;;;;;;5.27;2.60;;;;;;;16.56;86.06;100043.97;5083753;28;20236;-71
2021/08/01 05:28:37;;;;;;;4.87;2.33;;;;;;;16.79;83.95;100036.53;5080111;28;20177;-71
2021/08/01 05:31:02;;;;;;;5.43;2.33;;;;;;;17.07;83.24;100045.63;5078046;28;20198;-70
2021/08/01 05:33:27;;;;;;;4.13;2.20;;;;;;;17.27;81.56;100041.09;5076901;28;20178;-70
2021/08/01 05:35:52;;;;;;;2.93;2.40;;;;;;;17.23;81.45;100044.22;5094817;28;20166;-70
2021/08/01 05:38:18;;;;;;;4.33;2.00;;;;;;;17.36;80.59;100036.66;5075888;28;20526;-70
2021/08/01 05:40:44;;;;;;;4.90;2.37;;;;;;;17.27;80.47;100034.84;5094656;28;20193;-70
2021/08/01 05:43:09;;;;;;;6.03;2.50;;;;;;;17.18;80.34;100032.00;5076850;28;20190;-71
2021/08/01 05:45:34;;;;;;;3.23;2.37;;;;;;;17.03;80.79;100037.97;5076336;28;20177;-71
2021/08/01 05:48:00;;;;;;;4.83;2.50;;;;;;;16.97;81.32;100034.00;5075970;28;20182;-70
2021/08/01 05:50:25;;;;;;;3.77;2.37;;;;;;;16.95;82.13;100037.81;5075986;28;20542;-71
2021/08/01 05:52:50;;;;;;;3.23;2.50;;;;;;;16.91;82.10;100033.72;5094330;28;20232;-71
2021/08/01 05:55:15;;;;;;;5.27;2.67;;;;;;;16.87;81.95;100027.75;5075925;28;20174;-71
2021/08/01 05:57:41;;;;;;;3.40;2.50;;;;;;;16.95;81.19;100051.28;5075822;28;20166;-70
2021/08/01 06:00:06;;;;;;;4.27;2.50;;;;;;;16.96;81.47;100043.06;5094282;28;20166;-71
2021/08/01 06:02:31;;;;;;;2.97;2.50;;;;;;;16.82;81.63;100040.78;5093990;28;20285;-71
2021/08/01 06:04:57;;;;;;;3.80;2.50;;;;;;;17.15;80.36;100037.69;5093881;28;20534;-71
2021/08/01 06:07:22;;;;;;;3.80;2.30;;;;;;;17.15;80.47;100031.44;5076395;28;20291;-71
2021/08/01 06:09:48;;;;;;;4.07;2.20;;;;;;;17.17;80.14;100033.00;5094138;28;20539;-71
2021/08/01 06:12:14;;;;;;;7.60;2.57;;;;;;;17.32;79.00;100040.66;5094097;28;20650;-71
2021/08/01 06:14:39;;;;;;;4.07;2.80;;;;;;;17.32;78.41;100043.34;5094437;28;20166;-71
2021/08/01 06:17:05;;;;;;;4.63;2.63;;;;;;;17.11;78.95;100038.97;5076162;28;20185;-71
2021/08/01 06:19:30;;;;;;;3.77;2.47;;;;;;;17.08;79.33;100038.38;5093788;28;20174;-71
2021/08/01 06:21:56;;;;;;;3.30;2.20;;;;;;;17.10;77.18;100037.28;5075702;28;20238;-71
2021/08/01 06:24:21;;;;;;;5.17;2.40;;;;;;;17.23;77.29;100031.59;5075717;28;20186;-71
2021/08/01 06:26:47;;;;;;;3.93;2.03;;;;;;;17.35;76.61;100035.81;5094411;28;20181;-71
2021/08/01 06:29:12;;;;;;;3.33;2.30;;;;;;;17.48;75.26;100039.09;5076354;28;20186;-71
2021/08/01 06:31:37;;;;;;;3.47;2.20;;;;;;;17.58;75.48;100022.88;5094157;28;20194;-71
2021/08/01 06:34:03;;;;;;;5.90;2.50;;;;;;;17.98;73.94;100027.19;5093553;28;20653;-71
2021/08/01 06:36:28;;;;;;;3.97;2.20;;;;;;;18.04;72.88;100027.44;5093632;28;20182;-70
2021/08/01 06:38:53;;;;;;;2.63;2.20;;;;;;;17.99;73.28;100032.44;5075465;28;20654;-70
2021/08/01 06:41:19;;;;;;;4.07;2.17;;;;;;;17.90;74.07;100033.34;5093428;28;20205;-70
2021/08/01 06:43:44;;;;;;;3.90;2.50;;;;;;;17.88;74.25;100029.94;5093884;28;20248;-70
2021/08/01 06:46:09;;;;;;;8.87;5.10;;;;;;;17.83;74.43;100039.44;5093367;28;20686;-70
2021/08/01 06:48:35;;;;;;;5.57;3.77;;;;;;;17.69;74.09;100036.22;5092654;28;20177;-70
2021/08/01 06:51:02;;;;;;;4.87;3.20;;;;;;;17.67;74.63;100030.13;5058592;28;20198;-70
2021/08/01 06:53:28;;;;;;;4.83;3.57;;;;;;;17.62;75.44;100043.16;5075971;28;20216;-70
2021/08/01 06:55:53;;;;;;;5.63;3.83;;;;;;;17.64;75.53;100045.72;5058372;28;20174;-71
2021/08/01 06:58:19;;;;;;;3.90;2.77;;;;;;;17.64;75.70;100033.09;5093127;28;20174;-70
2021/08/01 07:00:48;;;;;;;4.60;4.03;;;;;;;17.40;75.77;100038.09;5075135;28;20586;-70
2021/08/01 07:03:14;;;;;;;4.47;2.60;;;;;;;17.42;75.60;100036.94;5074889;28;20193;-70
2021/08/01 07:05:40;;;;;;;6.13;4.10;;;;;;;17.34;75.92;100028.72;5075416;28;20190;-71
2021/08/01 07:08:05;;;;;;;9.27;5.53;;;;;;;17.55;75.93;100023.16;5093624;28;20181;-70
2021/08/01 07:10:30;;;;;;;9.17;5.60;;;;;;;17.61;74.31;100019.88;5093103;28;20192;-70
2021/08/01 07:13:01;;;;;;;5.87;3.83;;;;;;;17.68;74.51;100018.34;5093188;28;20178;-70
2021/08/01 07:15:26;;;;;;;3.70;2.80;;;;;;;17.81;74.12;100009.91;5075871;28;20166;-70
2021/08/01 07:17:56;;;;;;;3.30;2.43;;;;;;;17.76;74.19;100029.25;5075568;28;20223;-70
2021/08/01 07:20:22;;;;;;;4.83;2.50;;;;;;;17.80;74.26;100017.16;5081018;28;20181;-70
2021/08/01 07:22:47;;;;;;;9.37;6.50;;;;;;;18.08;73.93;100009.09;5075280;28;20218;-72
2021/08/01 07:25:12;;;;;;;4.30;2.40;;;;;;;18.28;73.54;100007.16;5093459;28;20269;-72
2021/08/01 07:27:37;;;;;;;2.83;2.33;;;;;;;18.41;72.73;100002.25;5102644;28;20173;-71
2021/08/01 07:30:04;;;;;;;3.90;2.00;;;;;;;18.58;71.20;100012.22;5092931;28;20627;-71
2021/08/01 07:32:30;;;;;;;3.03;2.00;;;;;;;18.63;70.23;100009.13;5075074;28;20202;-72
2021/08/01 07:34:55;;;;;;;6.10;4.73;;;;;;;18.53;71.01;100014.53;5093216;28;20229;-71
2021/08/01 07:37:20;;;;;;;4.97;3.00;;;;;;;18.41;71.25;100011.19;5093189;28;20181;-72
2021/08/01 07:39:46;;;;;;;4.93;2.50;;;;;;;18.34;72.26;100012.81;5092866;28;20249;-72
2021/08/01 07:42:11;;;;;;;4.20;3.27;;;;;;;18.55;72.06;100017.09;5092642;28;20205;-73
2021/08/01 07:44:50;;;;;;;5.70;2.33;;;;;;;18.68;71.24;100031.13;5075428;28;20174;-72
2021/08/01 07:47:17;;;;;;;5.40;2.17;;;;;;;18.58;70.67;100031.13;5076747;28;20163;-72
2021/08/01 07:49:43;;;;;;;2.47;2.13;;;;;;;18.56;70.72;100026.88;5092713;28;20170;-72
2021/08/01 07:52:09;;;;;;;3.63;1.70;;;;;;;18.57;70.08;100032.13;5092508;28;20198;-71
2021/08/01 07:54:34;;;;;;;3.50;1.57;;;;;;;18.76;69.42;100031.22;5092635;28;20178;-71
2021/08/01 07:56:59;;;;;;;2.13;1.60;;;;;;;18.56;69.69;100026.88;5092535;28;20202;-72
2021/08/01 07:59:24;;;;;;;2.97;1.70;;;;;;;18.42;70.18;100034.50;5093127;28;20655;-71
2021/08/01 08:01:50;;;;;;;4.63;2.03;;;;;;;18.30;70.65;100033.03;5078222;28;20592;-72
2021/08/01 08:04:15;;;;;;;4.40;1.57;;;;;;;18.26;71.15;100034.31;5078260;28;20273;-72
2021/08/01 08:06:41;;;;;;;6.27;3.60;;;;;;;18.16;71.80;100047.00;5078485;28;20179;-71
2021/08/01 08:09:06;;;;;;;10.63;7.43;;;;;;;18.36;70.63;100040.53;5078157;28;20204;-72
2021/08/01 08:11:31;;;;;;;6.50;3.20;;;;;;;18.57;70.18;100052.91;5078097;28;20288;-71
2021/08/01 08:13:57;;;;;;;2.80;2.07;;;;;;;18.78;69.29;100053.53;5078059;28;20186;-73
2021/08/01 08:16:22;;;;;;;1.83;1.63;;;;;;;18.94;68.91;100052.84;5077873;28;20173;-72
2021/08/01 08:18:50;;;;;;;2.53;2.03;;;;;;;19.17;68.66;100047.84;5077929;28;20294;-73
2021/08/01 08:21:15;;;;;;;3.20;1.47;;;;;;;19.22;68.15;100064.44;5077669;28;20217;-73
2021/08/01 08:23:40;;;;;;;3.23;1.97;;;;;;;19.17;67.39;100064.06;5095708;28;20190;-73
2021/08/01 08:26:05;;;;;;;3.27;1.20;;;;;;;19.22;67.55;100059.88;5095930;28;20175;-72
2021/08/01 08:28:31;;;;;;;4.37;1.60;;;;;;;19.44;67.62;100063.97;5078121;28;20178;-72
2021/08/01 08:30:56;;;;;;;1.97;1.43;;;;;;;18.83;68.01;100053.06;5095838;28;20212;-73
2021/08/01 08:33:21;;;;;;;1.83;1.27;;;;;;;19.00;69.09;100052.25;5095772;28;20162;-72
2021/08/01 08:35:47;;;;;;;2.30;1.53;;;;;;;19.76;65.48;100047.16;5095918;28;20178;-73
2021/08/01 08:38:12;;;;;;;1.87;1.37;;;;;;;19.61;65.61;100051.44;5095719;28;20182;-73
2021/08/01 08:40:38;;;;;;;7.67;1.50;;;;;;;19.62;65.96;100056.69;5095984;28;20261;-73
2021/08/01 08:43:03;;;;;;;24.40;1.97;;;;;;;19.34;66.87;100042.44;5060696;28;20194;-72
2021/08/01 08:45:29;;;;;;;2.70;1.40;;;;;;;19.09;68.91;100042.34;5060835;28;20182;-72
2021/08/01 08:47:56;;;;;;;2.30;1.40;;;;;;;18.77;70.15;100049.13;5080861;28;20170;-72
2021/08/01 08:50:21;;;;;;;2.07;1.30;;;;;;;19.11;68.44;100043.91;5097635;28;20178;-72
2021/08/01 08:52:51;;;;;;;2.70;1.53;;;;;;;19.35;68.30;100054.09;5080213;28;20201;-72
2021/08/01 08:55:17;;;;;;;1.87;1.70;;;;;;;19.81;64.94;100060.22;5084043;28;20182;-72
2021/08/01 08:57:49;;;;;;;11.83;8.17;;;;;;;19.96;64.39;100053.22;5101564;28;20652;-72
2021/08/01 09:00:15;;;;;;;4.00;3.30;;;;;;;19.82;64.33;100067.34;5066912;28;20583;-72
2021/08/01 09:02:40;;;;;;;2.60;1.50;;;;;;;19.46;67.04;100055.69;5067441;28;20263;-72
2021/08/01 09:05:07;;;;;;;1.87;1.40;;;;;;;19.71;65.48;100056.78;5078438;28;20179;-72
2021/08/01 09:07:33;;;;;;;2.70;1.97;;;;;;;19.78;65.18;100057.84;5077069;28;20171;-72
2021/08/01 09:09:58;;;;;;;3.20;1.80;;;;;;;19.58;65.19;100059.88;5077140;28;20262;-72
2021/08/01 09:12:24;;;;;;;2.87;1.70;;;;;;;19.32;66.33;100055.22;5059133;28;20277;-71
2021/08/01 09:15:07;;;;;;;7.73;2.00;;;;;;;19.17;67.65;100050.53;5076821;28;20634;-72
2021/08/01 09:17:34;;;;;;;2.90;1.73;;;;;;;19.10;68.08;100058.44;5076660;28;20166;-72
2021/08/01 09:20:23;;;;;;;1.83;1.43;;;;;;;19.10;67.71;100061.13;5095078;28;20235;-72
2021/08/01 09:23:00;;;;;;;2.13;1.30;;;;;;;18.96;67.49;100059.81;5076349;28;20288;-70
2021/08/01 09:25:28;;;;;;;1.77;1.30;;;;;;;18.96;67.38;100053.56;5094641;28;20174;-71
2021/08/01 09:28:08;;;;;;;2.73;1.67;;;;;;;18.87;68.85;100057.16;5059792;28;20208;-72
2021/08/01 09:30:56;;;;;;;3.40;1.27;;;;;;;19.07;68.03;100061.44;5076792;28;20154;-71
2021/08/01 09:33:36;;;;;;;3.33;1.20;;;;;;;18.99;68.14;100053.25;5094599;28;20154;-71
2021/08/01 09:36:05;;;;;;;1.67;1.33;;;;;;;19.29;66.96;100057.41;5076746;28;20182;-71
2021/08/01 09:38:56;;;;;;;3.70;1.13;;;;;;;19.44;66.52;100068.53;5094841;28;20598;-72
2021/08/01 09:41:36;;;;;;;2.63;1.20;;;;;;;19.74;65.68;100060.03;5076426;28;20190;-72
2021/08/01 09:44:03;;;;;;;2.60;1.30;;;;;;;20.13;64.66;100048.75;5094612;28;20221;-72
2021/08/01 09:46:43;;;;;;;8.73;4.80;;;;;;;20.32;63.83;100050.34;5076337;28;20212;-72
2021/08/01 09:49:10;;;;;;;15.83;11.93;;;;;;;20.54;63.35;100047.94;5076293;28;20178;-71
2021/08/01 09:51:43;;;;;;;3.10;2.30;;;;;;;21.02;61.05;100048.22;5076390;28;20187;-72
2021/08/01 09:54:10;;;;;;;3.00;2.43;;;;;;;21.31;59.04;100053.22;5094406;28;20171;-71
2021/08/01 09:56:36;;;;;;;2.90;2.00;;;;;;;21.10;60.66;100049.09;5094716;28;20232;-71
2021/08/01 09:59:02;;;;;;;2.73;1.43;;;;;;;20.36;63.16;100040.88;5076073;28;20295;-73
2021/08/01 10:01:27;;;;;;;5.47;4.07;;;;;;;20.26;64.33;100052.69;5094354;28;20193;-72
2021/08/01 10:03:52;;;;;;;4.67;1.80;;;;;;;19.95;64.85;100056.94;5093948;28;20197;-72
2021/08/01 10:06:22;;;;;;;2.93;1.80;;;;;;;20.15;64.23;100058.41;5059114;28;20186;-73
2021/08/01 10:08:51;;;;;;;1.80;1.60;;;;;;;19.88;64.99;100064.84;5093964;28;20538;-71
2021/08/01 10:11:24;;;;;;;1.83;1.43;;;;;;;19.55;65.34;100060.19;5093930;28;20206;-72
2021/08/01 10:13:52;;;;;;;2.17;1.50;;;;;;;19.11;67.97;100070.94;5076023;28;20665;-72
2021/08/01 10:16:18;;;;;;;1.70;1.50;;;;;;;18.27;72.30;100057.63;5076044;28;20223;-72
2021/08/01 10:18:45;;;;;;;3.60;1.80;;;;;;;17.80;75.33;100051.38;5075746;28;20174;-71
2021/08/01 10:21:13;;;;;;;2.53;1.53;;;;;;;17.61;75.24;100070.31;5081541;22;20210;-71
2021/08/01 10:23:44;;;;;;;4.00;1.70;;;;;;;17.62;75.85;100059.34;5095704;28;20573;-70
2021/08/01 10:26:09;;;;;;;3.20;1.77;;;;;;;17.77;75.43;100052.53;5113723;28;20244;-70
2021/08/01 10:28:41;;;;;;;2.30;1.80;;;;;;;18.01;74.46;100070.09;5114182;28;20245;-71
2021/08/01 10:31:09;;;;;;;1.60;1.47;;;;;;;18.05;74.30;100068.78;5130945;27;20146;-71
2021/08/01 10:33:38;;;;;;;3.50;2.30;;;;;;;17.95;74.70;100068.00;5112895;28;20207;-70
2021/08/01 10:36:05;;;;;;;3.47;2.53;;;;;;;17.88;76.38;100077.66;5114368;28;20172;-72
2021/08/01 10:38:33;;;;;;;3.23;2.70;;;;;;;17.87;75.61;100071.41;5113331;28;20169;-71
2021/08/01 10:41:00;;;;;;;3.13;2.30;;;;;;;18.07;73.97;100067.66;5112876;28;20223;-71
2021/08/01 10:43:29;;;;;;;1.83;1.73;;;;;;;18.37;73.82;100062.97;5112794;28;20185;-71
2021/08/01 10:45:55;;;;;;;1.77;1.50;;;;;;;18.34;75.49;100064.13;5096023;28;20173;-70
2021/08/01 10:48:25;;;;;;;2.43;1.40;;;;;;;18.51;74.87;100053.53;5113131;28;20192;-70
2021/08/01 10:50:50;;;;;;;1.90;1.30;;;;;;;19.52;71.53;100061.34;5113618;28;20200;-72
2021/08/01 10:53:18;;;;;;;2.77;2.13;;;;;;;20.64;68.28;100058.66;5112701;28;20182;-70
2021/08/01 10:55:51;;;;;;;1.93;1.70;;;;;;;20.94;64.43;100057.22;5114164;28;20255;-72
2021/08/01 10:58:17;;;;;;;2.53;1.10;;;;;;;21.13;64.53;100056.03;5113133;28;20153;-71
2021/08/01 11:00:55;;;;;;;2.50;1.70;;;;;;;20.80;65.36;100058.69;5116614;28;20625;-72
2021/08/01 11:03:20;;;;;;;3.10;1.40;;;;;;;20.67;66.05;100052.88;5113766;28;20189;-70
2021/08/01 11:05:45;;;;;;;2.93;2.50;;;;;;;20.54;65.85;100055.22;5113018;28;20178;-70
2021/08/01 11:08:11;;;;;;;3.90;1.70;;;;;;;20.92;64.91;100060.09;5113785;28;20177;-72
2021/08/01 11:10:38;;;;;;;3.43;1.60;;;;;;;20.19;66.39;100053.50;5096234;28;20641;-72
2021/08/01 11:13:31;;;;;;;2.77;1.50;;;;;;;19.89;67.62;100060.28;5113365;28;20189;-73
2021/08/01 11:15:56;;;;;;;5.10;2.50;;;;;;;20.26;66.09;100057.28;5115609;28;20173;-70
2021/08/01 11:18:31;;;;;;;2.90;2.20;;;;;;;20.33;66.22;100050.19;5113771;28;20169;-72
2021/08/01 11:20:59;;;;;;;2.30;1.67;;;;;;;20.39;65.70;100054.94;5113810;28;20169;-72
2021/08/01 11:23:44;;;;;;;3.50;2.13;;;;;;;19.98;66.80;100043.91;5112864;28;20197;-71
2021/08/01 11:26:11;;;;;;;3.83;2.30;;;;;;;19.98;67.79;100046.63;5115123;28;20256;-70
2021/08/01 11:28:38;;;;;;;2.27;1.73;;;;;;;19.87;68.80;100043.34;5113543;28;20228;-71
2021/08/01 11:31:04;;;;;;;2.23;1.90;;;;;;;19.74;69.92;100051.06;5113366;28;20218;-71